Time;durP1;ratioP1;P1;durP2;ratioP2;P2;SDS_P1;SDS_P2;PMS_P1;PMS_P2;Temp;Humidity;BMP_temperature;BMP_pressure;BME280_temperature;BME280_humidity;BME280_pressure;Samples;Min_cycle;Max_cycle;Signal;HPM_P1;HPM_P2
2022/12/30 00:01:47;;;;;;;30.80;28.40;;;;;;;6.58;100.00;100214.53;5032398;28;20460;-51
2022/12/30 00:04:16;;;;;;;30.00;28.17;;;;;;;6.60;100.00;100221.28;5032446;28;20460;-49
2022/12/30 00:06:44;;;;;;;32.03;29.43;;;;;;;6.60;100.00;100223.94;5033100;28;20436;-48
2022/12/30 00:09:12;;;;;;;31.83;29.53;;;;;;;6.61;100.00;100230.06;5033444;28;20432;-47
2022/12/30 00:11:39;;;;;;;33.80;30.40;;;;;;;6.57;100.00;100223.50;5032575;28;20517;-50
2022/12/30 00:33:48;;;;;;;32.23;29.83;;;;;;;6.64;100.00;100249.06;5031789;28;20436;-50
2022/12/30 00:36:17;;;;;;;33.00;30.20;;;;;;;6.62;100.00;100260.84;5031725;28;20995;-50
2022/12/30 00:38:45;;;;;;;32.10;29.87;;;;;;;6.63;100.00;100262.50;5028952;28;20499;-49
2022/12/30 00:43:58;;;;;;;34.07;31.00;;;;;;;6.68;100.00;100265.41;5031415;28;21013;-49
2022/12/30 00:46:26;;;;;;;34.53;31.03;;;;;;;6.68;100.00;100273.38;5032301;28;20612;-48
2022/12/30 00:57:10;;;;;;;32.90;30.40;;;;;;;6.60;100.00;100270.81;5031268;28;20432;-50
2022/12/30 00:59:38;;;;;;;33.53;30.43;;;;;;;6.58;100.00;100273.63;5031351;28;20472;-47
2022/12/30 01:02:06;;;;;;;32.43;29.63;;;;;;;6.54;100.00;100275.00;5031683;28;20463;-49
2022/12/30 01:04:33;;;;;;;32.10;29.43;;;;;;;6.52;100.00;100265.59;5030493;28;20456;-48
2022/12/30 01:07:02;;;;;;;36.93;31.23;;;;;;;6.51;100.00;100285.94;5031735;28;20459;-49
2022/12/30 01:09:30;;;;;;;34.67;29.73;;;;;;;6.49;100.00;100276.53;5031361;28;20432;-47
2022/12/30 01:12:09;;;;;;;32.87;30.03;;;;;;;6.46;100.00;100288.31;5031467;28;20496;-47
2022/12/30 01:14:38;;;;;;;33.73;30.73;;;;;;;6.48;100.00;100281.00;5031193;28;20551;-47
2022/12/30 01:17:08;;;;;;;37.43;30.47;;;;;;;6.49;100.00;100289.78;5031517;28;20429;-47
2022/12/30 01:19:36;;;;;;;34.13;29.43;;;;;;;6.52;100.00;100297.38;5031854;28;20575;-51
2022/12/30 01:22:06;;;;;;;31.70;28.97;;;;;;;6.50;100.00;100294.91;5030986;28;20458;-49
2022/12/30 01:24:33;;;;;;;31.30;29.00;;;;;;;6.53;100.00;100302.50;5030699;28;20464;-48
2022/12/30 01:27:01;;;;;;;33.30;30.10;;;;;;;6.57;100.00;100316.22;5031209;28;20432;-48
2022/12/30 01:29:34;;;;;;;32.63;30.20;;;;;;;6.57;100.00;100317.00;5031196;28;20436;-47
2022/12/30 01:32:01;;;;;;;31.90;29.90;;;;;;;6.57;100.00;100316.22;5031048;28;20463;-49
2022/12/30 01:34:29;;;;;;;34.43;31.43;;;;;;;6.59;100.00;100319.50;5030909;28;20467;-49
2022/12/30 01:36:57;;;;;;;35.50;31.70;;;;;;;6.57;100.00;100321.53;5029321;28;20439;-51
2022/12/30 01:39:26;;;;;;;32.57;29.43;;;;;;;6.59;100.00;100325.63;5024686;28;20478;-48
2022/12/30 01:41:54;;;;;;;31.70;29.03;;;;;;;6.56;100.00;100330.47;5030918;28;21027;-46
2022/12/30 01:44:53;;;;;;;34.50;31.50;;;;;;;6.54;100.00;100333.28;5030174;28;20456;-49
2022/12/30 01:47:26;;;;;;;32.83;29.63;;;;;;;6.50;100.00;100347.91;5030936;28;20416;-50
2022/12/30 01:49:58;;;;;;;38.43;30.50;;;;;;;6.50;100.00;100357.66;5031294;28;20440;-48
2022/12/30 01:52:27;;;;;;;32.20;29.30;;;;;;;6.47;100.00;100356.22;5031011;28;20961;-52
2022/12/30 01:55:02;;;;;;;34.50;30.83;;;;;;;6.50;100.00;100357.66;5030611;28;20475;-51
2022/12/30 01:57:31;;;;;;;33.37;29.80;;;;;;;6.48;100.00;100357.84;5031222;28;20447;-48
2022/12/30 02:00:02;;;;;;;31.83;28.93;;;;;;;6.48;100.00;100363.13;5031468;28;20479;-49
2022/12/30 02:02:31;;;;;;;31.67;29.20;;;;;;;6.48;100.00;100352.53;5030700;28;20467;-48
2022/12/30 02:05:00;;;;;;;33.30;29.83;;;;;;;6.47;100.00;100360.66;5030398;28;21059;-47
2022/12/30 02:07:34;;;;;;;33.07;30.00;;;;;;;6.41;100.00;100367.50;5031193;28;20432;-50
2022/12/30 02:10:03;;;;;;;34.57;31.20;;;;;;;6.38;100.00;100373.16;5031198;28;20424;-49
2022/12/30 02:12:31;;;;;;;32.77;29.67;;;;;;;6.39;100.00;100382.75;5030994;28;20452;-51
2022/12/30 02:14:58;;;;;;;35.67;30.37;;;;;;;6.37;100.00;100374.16;5030665;28;20474;-47
2022/12/30 02:17:36;;;;;;;33.50;30.30;;;;;;;6.34;100.00;100373.69;5031096;28;20436;-47
2022/12/30 02:20:56;;;;;;;34.10;29.93;;;;;;;6.33;100.00;100377.34;5031069;28;20472;-51
2022/12/30 02:23:42;;;;;;;33.50;30.50;;;;;;;6.30;100.00;100375.84;5012675;28;20460;-47
2022/12/30 02:26:39;;;;;;;35.20;31.90;;;;;;;6.28;100.00;100377.03;5012152;28;20453;-49
2022/12/30 02:29:26;;;;;;;35.43;30.80;;;;;;;6.20;100.00;100380.59;5029980;28;20435;-51
2022/12/30 02:32:04;;;;;;;33.03;29.77;;;;;;;6.15;100.00;100388.25;5034308;28;20482;-53
2022/12/30 02:34:42;;;;;;;33.90;30.73;;;;;;;6.11;100.00;100385.13;5034173;28;20513;-50
2022/12/30 02:37:21;;;;;;;38.80;30.90;;;;;;;6.06;100.00;100382.16;5031188;28;20438;-50
2022/12/30 02:39:57;;;;;;;33.17;29.70;;;;;;;6.02;100.00;100390.66;5031667;28;20984;-49
2022/12/30 02:45:34;;;;;;;37.40;30.50;;;;;;;6.02;100.00;100404.72;5020290;28;20815;-46
2022/12/30 02:48:06;;;;;;;33.27;30.37;;;;;;;6.06;100.00;100407.84;5034519;28;20824;-48
2022/12/30 02:53:28;;;;;;;32.47;29.93;;;;;;;6.13;100.00;100414.88;5034559;28;20462;-46
2022/12/30 02:55:56;;;;;;;32.43;29.83;;;;;;;6.15;100.00;100417.38;5033869;28;20953;-50
2022/12/30 02:58:28;;;;;;;34.80;31.80;;;;;;;6.17;100.00;100410.06;5033818;28;20849;-47
2022/12/30 03:04:10;;;;;;;35.27;31.03;;;;;;;6.19;100.00;100399.28;5033882;28;20462;-51
2022/12/30 03:06:59;;;;;;;35.63;32.37;;;;;;;6.21;100.00;100415.84;5033977;28;20428;-50
2022/12/30 03:11:12;;;;;;;33.77;30.47;;;;;;;6.21;100.00;100427.25;5033978;28;20427;-47
2022/12/30 03:12:45;;;;;;;32.83;30.00;;;;;;;6.19;100.00;100423.13;5033697;28;21042;-49
2022/12/30 03:15:16;;;;;;;33.03;30.23;;;;;;;6.18;100.00;100437.38;5033163;28;20509;-47
2022/12/30 03:17:45;;;;;;;37.87;31.53;;;;;;;6.17;100.00;100436.53;5033718;28;20957;-50
2022/12/30 03:20:18;;;;;;;32.80;29.30;;;;;;;6.14;100.00;100436.91;5033843;28;20476;-51
2022/12/30 03:28:23;;;;;;;38.97;31.23;;;;;;;6.19;100.00;100441.66;5033676;28;20456;-49
2022/12/30 03:30:58;;;;;;;34.27;30.67;;;;;;;6.17;100.00;100449.78;5033352;28;20433;-48
2022/12/30 03:33:26;;;;;;;35.77;32.17;;;;;;;6.18;100.00;100458.56;5033508;28;20506;-50
2022/12/30 03:36:02;;;;;;;36.00;32.10;;;;;;;6.16;100.00;100463.19;5033149;28;20444;-53
2022/12/30 03:38:35;;;;;;;33.67;30.07;;;;;;;6.15;100.00;100464.19;5024745;28;20428;-47
2022/12/30 03:41:07;;;;;;;33.77;30.33;;;;;;;6.16;100.00;100474.59;5033450;28;20476;-53
2022/12/30 03:43:36;;;;;;;33.10;30.00;;;;;;;6.13;100.00;100478.44;5032588;28;20922;-50
2022/12/30 03:46:03;;;;;;;34.80;31.23;;;;;;;6.13;100.00;100482.88;5032863;28;20432;-46
2022/12/30 03:48:31;;;;;;;35.70;32.13;;;;;;;6.15;100.00;100472.13;5033108;28;20497;-47
2022/12/30 03:51:00;;;;;;;35.30;31.70;;;;;;;6.10;100.00;100484.06;5033035;28;20428;-46
2022/12/30 03:53:28;;;;;;;38.90;32.77;;;;;;;6.06;100.00;100480.09;5032311;28;20448;-50
2022/12/30 03:55:56;;;;;;;35.03;31.80;;;;;;;6.02;100.00;100492.06;5032347;28;20976;-48
2022/12/30 03:58:23;;;;;;;34.30;31.03;;;;;;;6.03;100.00;100493.69;5033035;28;20443;-50
2022/12/30 04:00:51;;;;;;;35.07;31.43;;;;;;;6.03;100.00;100495.53;5032820;28;20475;-49
2022/12/30 04:03:19;;;;;;;41.07;31.57;;;;;;;5.98;100.00;100496.03;5032795;28;20460;-53
2022/12/30 04:05:46;;;;;;;37.30;33.10;;;;;;;5.96;100.00;100495.41;5032156;28;20460;-50
2022/12/30 04:08:15;;;;;;;37.33;31.23;;;;;;;5.95;100.00;100490.25;5032946;28;20436;-49
2022/12/30 04:10:43;;;;;;;33.83;29.90;;;;;;;5.93;100.00;100502.84;5032643;28;20436;-49
2022/12/30 04:13:10;;;;;;;33.37;29.80;;;;;;;5.90;100.00;100504.03;5032345;28;20973;-48
2022/12/30 04:15:38;;;;;;;34.60;30.80;;;;;;;5.86;100.00;100512.47;5031767;28;20476;-48
2022/12/30 04:18:06;;;;;;;36.30;32.83;;;;;;;5.82;100.00;100509.31;5032639;28;20444;-51
2022/12/30 04:20:33;;;;;;;36.50;31.10;;;;;;;5.81;100.00;100520.06;5032481;28;20483;-50
2022/12/30 04:23:01;;;;;;;33.20;30.27;;;;;;;5.78;100.00;100517.75;5032648;28;20866;-46
2022/12/30 04:25:30;;;;;;;42.03;31.20;;;;;;;5.74;100.00;100509.34;5031828;28;20475;-47
2022/12/30 04:27:57;;;;;;;40.60;31.70;;;;;;;5.74;100.00;100519.91;5032257;28;20815;-52
2022/12/30 04:30:25;;;;;;;44.03;32.50;;;;;;;5.71;100.00;100522.91;5032335;28;20432;-46
2022/12/30 04:32:52;;;;;;;38.00;31.40;;;;;;;5.70;100.00;100528.38;5032222;28;20460;-46
2022/12/30 04:35:20;;;;;;;34.30;30.83;;;;;;;5.66;100.00;100538.47;5031789;28;20460;-48
2022/12/30 04:37:48;;;;;;;42.70;30.53;;;;;;;5.65;100.00;100541.28;5024060;28;20438;-50
2022/12/30 04:40:16;;;;;;;33.63;30.40;;;;;;;5.64;100.00;100551.06;5032261;28;20472;-50
2022/12/30 04:42:45;;;;;;;40.47;30.93;;;;;;;5.64;100.00;100551.06;5031118;28;20467;-53
2022/12/30 04:45:13;;;;;;;49.30;32.23;;;;;;;5.64;100.00;100553.69;5031095;28;20467;-49
2022/12/30 04:47:41;;;;;;;34.60;31.57;;;;;;;5.68;100.00;100557.63;5032063;28;20481;-49
2022/12/30 04:50:10;;;;;;;39.13;32.00;;;;;;;5.70;100.00;100558.31;5032382;28;20436;-53
2022/12/30 04:52:38;;;;;;;38.27;30.60;;;;;;;5.73;100.00;100562.44;5031879;28;20486;-46
2022/12/30 04:55:06;;;;;;;34.70;31.40;;;;;;;5.74;100.00;100562.25;5031199;28;20468;-50
2022/12/30 04:57:34;;;;;;;35.93;32.30;;;;;;;5.75;100.00;100571.84;5031736;28;20432;-49
2022/12/30 05:00:05;;;;;;;33.73;30.10;;;;;;;5.71;100.00;100567.88;5031850;28;20498;-49
2022/12/30 05:02:33;;;;;;;33.93;30.57;;;;;;;5.68;100.00;100568.22;5031704;28;20989;-48
2022/12/30 05:05:00;;;;;;;37.13;31.40;;;;;;;5.68;100.00;100573.50;5030999;28;20468;-50
2022/12/30 05:07:28;;;;;;;33.90;30.60;;;;;;;5.69;100.00;100569.88;5031633;28;20998;-47
2022/12/30 05:09:56;;;;;;;38.40;30.03;;;;;;;5.66;100.00;100585.25;5031704;28;20526;-46
2022/12/30 05:12:23;;;;;;;32.83;30.03;;;;;;;5.64;100.00;100587.25;5031212;28;20460;-48
2022/12/30 05:14:51;;;;;;;34.63;31.10;;;;;;;5.61;100.00;100593.72;5031226;28;20522;-49
2022/12/30 05:17:20;;;;;;;39.20;30.73;;;;;;;5.56;100.00;100604.78;5032026;28;20486;-52
2022/12/30 05:19:48;;;;;;;33.97;30.30;;;;;;;5.49;100.00;100606.47;5031431;28;20449;-50
2022/12/30 05:22:15;;;;;;;33.40;30.27;;;;;;;5.45;100.00;100606.94;5031310;28;20575;-49
2022/12/30 05:27:28;;;;;;;36.93;32.87;;;;;;;5.37;100.00;100599.03;5031432;28;20432;-48
2022/12/30 05:29:55;;;;;;;39.83;31.73;;;;;;;5.33;100.00;100603.81;5031981;28;20456;-50
2022/12/30 05:32:24;;;;;;;36.90;32.40;;;;;;;5.28;100.00;100614.09;5031587;28;20456;-48
2022/12/30 05:34:52;;;;;;;39.90;31.17;;;;;;;5.25;100.00;100611.75;5030886;28;20463;-51
2022/12/30 05:37:19;;;;;;;34.07;30.93;;;;;;;5.20;100.00;100615.88;5025954;28;20433;-52
2022/12/30 05:39:47;;;;;;;34.03;30.63;;;;;;;5.15;100.00;100612.91;5028098;28;20436;-46
2022/12/30 05:42:15;;;;;;;35.90;32.57;;;;;;;5.11;100.00;100627.47;5030572;28;20488;-45
2022/12/30 05:44:42;;;;;;;37.67;29.90;;;;;;;5.07;100.00;100629.59;5030447;28;20472;-48
2022/12/30 05:47:10;;;;;;;34.33;30.73;;;;;;;5.04;100.00;100627.28;5031030;28;20451;-48
2022/12/30 05:49:39;;;;;;;34.00;30.87;;;;;;;5.01;100.00;100628.44;5031076;28;20436;-50
2022/12/30 05:52:11;;;;;;;34.10;30.80;;;;;;;4.95;100.00;100630.91;5030886;28;20456;-46
2022/12/30 05:54:39;;;;;;;33.40;30.50;;;;;;;4.92;100.00;100631.22;5031271;28;20498;-46
2022/12/30 05:57:07;;;;;;;33.87;30.63;;;;;;;4.88;100.00;100640.47;5035562;28;20432;-48
2022/12/30 05:59:34;;;;;;;35.23;31.17;;;;;;;4.85;100.00;100631.03;5034702;28;20964;-48
2022/12/30 06:02:02;;;;;;;41.77;31.43;;;;;;;4.85;100.00;100640.78;5034956;28;20616;-52
2022/12/30 06:04:30;;;;;;;36.33;31.30;;;;;;;4.81;100.00;100642.91;5034431;28;20840;-48
2022/12/30 06:06:59;;;;;;;33.50;30.70;;;;;;;4.76;100.00;100654.97;5035243;28;20432;-46
2022/12/30 06:09:27;;;;;;;35.00;31.23;;;;;;;4.76;100.00;100655.78;5035018;28;20432;-48
2022/12/30 06:11:54;;;;;;;40.27;31.20;;;;;;;4.73;100.00;100645.53;5034633;28;20471;-48
2022/12/30 06:14:22;;;;;;;35.90;31.77;;;;;;;4.71;100.00;100650.19;5034324;28;20471;-47
2022/12/30 06:16:50;;;;;;;36.80;32.30;;;;;;;4.69;100.00;100660.06;5034629;28;20497;-47
2022/12/30 06:19:17;;;;;;;34.90;31.53;;;;;;;4.66;100.00;100654.28;5034658;28;20447;-49
2022/12/30 06:21:45;;;;;;;32.70;29.90;;;;;;;4.64;100.00;100665.00;5034267;28;20977;-49
2022/12/30 06:24:14;;;;;;;32.77;29.90;;;;;;;4.63;100.00;100658.06;5033917;28;20516;-52
2022/12/30 06:26:41;;;;;;;34.80;30.50;;;;;;;4.60;100.00;100655.72;5034302;28;20432;-46
2022/12/30 06:29:09;;;;;;;33.77;30.67;;;;;;;4.57;100.00;100655.25;5034741;28;20440;-47
2022/12/30 06:31:37;;;;;;;35.10;31.40;;;;;;;4.59;100.00;100655.91;5034320;28;20857;-50
2022/12/30 06:34:04;;;;;;;34.83;31.03;;;;;;;4.56;100.00;100670.25;5034238;28;20880;-49
2022/12/30 06:36:32;;;;;;;34.77;31.47;;;;;;;4.56;100.00;100667.63;5033968;28;20436;-46
2022/12/30 06:38:59;;;;;;;35.57;32.00;;;;;;;4.54;100.00;100672.22;5026110;28;20428;-48
2022/12/30 06:41:28;;;;;;;34.03;30.73;;;;;;;4.52;100.00;100676.84;5034062;28;20475;-50
2022/12/30 06:43:56;;;;;;;33.47;30.47;;;;;;;4.53;100.00;100683.78;5033455;28;20463;-50
2022/12/30 06:46:23;;;;;;;32.90;30.50;;;;;;;4.54;100.00;100666.94;5034258;28;20436;-51
2022/12/30 06:48:51;;;;;;;36.47;32.70;;;;;;;4.52;100.00;100676.84;5033773;28;20984;-49
2022/12/30 06:51:19;;;;;;;35.33;32.13;;;;;;;4.52;100.00;100663.63;5034152;28;20433;-49
2022/12/30 06:53:46;;;;;;;34.60;31.27;;;;;;;4.51;100.00;100664.59;5033482;28;20460;-49
2022/12/30 06:56:14;;;;;;;33.60;30.90;;;;;;;4.47;100.00;100666.75;5034096;28;20436;-46
2022/12/30 06:58:43;;;;;;;34.17;30.63;;;;;;;4.45;100.00;100673.16;5033914;28;20429;-49
2022/12/30 07:01:10;;;;;;;33.73;30.57;;;;;;;4.44;100.00;100666.25;5033882;28;20514;-45
2022/12/30 07:03:38;;;;;;;44.63;32.37;;;;;;;4.42;100.00;100676.16;5033548;28;20814;-51
2022/12/30 07:06:06;;;;;;;33.60;31.03;;;;;;;4.40;100.00;100683.38;5033077;28;20436;-49
2022/12/30 07:08:34;;;;;;;36.37;32.80;;;;;;;4.40;100.00;100697.41;5033876;28;20432;-49
2022/12/30 07:11:02;;;;;;;34.97;31.97;;;;;;;4.41;100.00;100698.25;5033517;28;20436;-49
2022/12/30 07:13:29;;;;;;;34.60;31.10;;;;;;;4.41;100.00;100695.59;5032816;28;20772;-48
2022/12/30 07:15:58;;;;;;;33.97;30.80;;;;;;;4.41;100.00;100704.38;5033841;28;20428;-46
2022/12/30 07:18:26;;;;;;;33.77;30.73;;;;;;;4.43;100.00;100702.38;5034074;28;20786;-49
2022/12/30 07:20:54;;;;;;;34.90;31.50;;;;;;;4.48;100.00;100710.66;5033431;28;20447;-46
2022/12/30 07:23:22;;;;;;;34.93;31.80;;;;;;;4.51;100.00;100701.56;5033754;28;20484;-48
2022/12/30 07:25:49;;;;;;;34.90;31.33;;;;;;;4.56;100.00;100712.50;5032752;28;21052;-51
2022/12/30 07:28:17;;;;;;;34.07;30.97;;;;;;;4.57;100.00;100708.88;5033647;28;20949;-50
2022/12/30 07:30:44;;;;;;;34.73;32.10;;;;;;;4.61;100.00;100714.66;5033393;28;20494;-51
2022/12/30 07:33:13;;;;;;;34.53;31.47;;;;;;;4.64;100.00;100714.34;5033348;28;20597;-50
2022/12/30 07:35:41;;;;;;;33.57;30.87;;;;;;;4.68;100.00;100720.97;5032473;28;20464;-48
2022/12/30 07:38:09;;;;;;;34.40;31.00;;;;;;;4.71;100.00;100718.84;5024492;28;20436;-48
2022/12/30 07:40:36;;;;;;;35.57;32.20;;;;;;;4.76;100.00;100727.13;5033282;28;20432;-46
2022/12/30 07:43:04;;;;;;;36.93;31.37;;;;;;;4.81;100.00;100714.25;5032771;28;20925;-48
2022/12/30 07:45:32;;;;;;;35.37;31.93;;;;;;;4.86;100.00;100719.06;5032155;28;20464;-47
2022/12/30 07:48:00;;;;;;;35.40;32.07;;;;;;;4.90;100.00;100710.66;5033085;28;20498;-46
2022/12/30 07:50:29;;;;;;;35.03;31.83;;;;;;;4.98;100.00;100715.13;5032700;28;20428;-49
2022/12/30 07:52:57;;;;;;;34.50;32.10;;;;;;;5.01;100.00;100713.00;5032513;28;20451;-48
2022/12/30 07:55:24;;;;;;;33.77;30.87;;;;;;;5.08;100.00;100720.28;5032157;28;20530;-45
2022/12/30 07:57:52;;;;;;;35.00;31.70;;;;;;;5.11;100.00;100726.06;5032603;28;20806;-47
2022/12/30 08:00:20;;;;;;;36.30;33.10;;;;;;;5.17;100.00;100721.97;5032385;28;20437;-49
2022/12/30 08:02:53;;;;;;;33.97;31.27;;;;;;;5.20;100.00;100725.09;5032262;28;20520;-51
2022/12/30 08:05:21;;;;;;;38.20;34.53;;;;;;;5.27;100.00;100733.19;5031592;28;20464;-48
2022/12/30 08:07:52;;;;;;;40.07;36.20;;;;;;;5.29;100.00;100723.28;5032578;28;20798;-48
2022/12/30 08:10:20;;;;;;;41.67;37.67;;;;;;;5.34;100.00;100735.06;5031950;28;20450;-50
2022/12/30 08:12:48;;;;;;;41.07;37.17;;;;;;;5.38;100.00;100732.88;5032003;28;20448;-52
2022/12/30 08:15:16;;;;;;;45.10;40.20;;;;;;;5.39;100.00;100723.97;5030167;28;20460;-45
2022/12/30 08:17:43;;;;;;;43.63;39.70;;;;;;;5.43;100.00;100734.06;5031704;28;20511;-49
2022/12/30 08:20:11;;;;;;;46.67;41.00;;;;;;;5.46;100.00;100740.84;5030755;28;20424;-51
2022/12/30 08:22:40;;;;;;;43.10;39.10;;;;;;;5.49;100.00;100743.16;5030314;28;20828;-48
2022/12/30 08:25:10;;;;;;;43.37;38.83;;;;;;;5.50;100.00;100736.88;5029675;28;20466;-52
2022/12/30 08:27:38;;;;;;;39.17;36.10;;;;;;;5.52;100.00;100730.44;5029911;28;20460;-45
2022/12/30 08:30:07;;;;;;;39.20;35.87;;;;;;;5.54;100.00;100736.41;5029870;28;20433;-46
2022/12/30 08:32:34;;;;;;;39.60;35.90;;;;;;;5.55;100.00;100734.56;5030284;28;20444;-51
2022/12/30 08:35:02;;;;;;;39.70;36.23;;;;;;;5.57;100.00;100736.06;5027674;28;20988;-51
2022/12/30 08:37:30;;;;;;;40.33;36.20;;;;;;;5.58;100.00;100740.34;5027012;28;20486;-46
2022/12/30 08:39:57;;;;;;;43.37;39.10;;;;;;;5.59;100.00;100739.38;5029904;28;20432;-52
2022/12/30 08:42:26;;;;;;;42.87;38.40;;;;;;;5.61;100.00;100736.56;5030500;28;20484;-48
2022/12/30 08:44:54;;;;;;;46.10;39.60;;;;;;;5.65;100.00;100737.03;5029054;28;20467;-52
2022/12/30 08:47:21;;;;;;;45.17;40.43;;;;;;;5.66;100.00;100741.34;5031441;28;20436;-47
2022/12/30 08:49:49;;;;;;;42.30;39.07;;;;;;;5.67;100.00;100745.66;5030164;28;20439;-50
2022/12/30 08:52:17;;;;;;;41.63;37.93;;;;;;;5.71;100.00;100746.97;5029446;28;21098;-47
2022/12/30 08:54:45;;;;;;;39.87;36.87;;;;;;;5.75;100.00;100741.19;5028579;28;20491;-51
2022/12/30 08:57:13;;;;;;;41.40;37.90;;;;;;;5.75;100.00;100743.00;5029367;28;20436;-53
2022/12/30 08:59:42;;;;;;;43.13;39.30;;;;;;;5.80;100.00;100740.69;5029167;28;20447;-51
2022/12/30 09:02:11;;;;;;;40.87;37.30;;;;;;;5.84;100.00;100748.13;5029535;28;20505;-48
2022/12/30 09:04:39;;;;;;;40.10;36.60;;;;;;;5.85;100.00;100751.63;5028063;28;20464;-50
2022/12/30 09:07:07;;;;;;;39.73;36.40;;;;;;;5.90;100.00;100750.16;5029197;28;20443;-48
2022/12/30 09:09:55;;;;;;;37.80;34.83;;;;;;;5.95;100.00;100749.66;5029324;28;20443;-49
2022/12/30 09:12:23;;;;;;;39.17;35.77;;;;;;;6.00;100.00;100748.16;5028902;28;20809;-48
2022/12/30 09:14:52;;;;;;;37.90;34.77;;;;;;;5.99;100.00;100749.16;5028676;28;20529;-49
2022/12/30 09:17:19;;;;;;;37.10;33.77;;;;;;;6.03;100.00;100750.47;5028626;28;20455;-53
2022/12/30 09:19:47;;;;;;;40.03;36.23;;;;;;;6.11;100.00;100739.06;5029192;28;20436;-53
2022/12/30 09:22:14;;;;;;;38.50;35.27;;;;;;;6.14;100.00;100744.00;5028886;28;20510;-45
2022/12/30 09:24:42;;;;;;;38.80;35.67;;;;;;;6.19;100.00;100743.50;5028628;28;20456;-50
2022/12/30 09:27:10;;;;;;;36.77;33.93;;;;;;;6.21;100.00;100738.88;5028652;28;20434;-51
2022/12/30 09:29:38;;;;;;;36.70;33.20;;;;;;;6.28;100.00;100732.72;5028365;28;20926;-51
2022/12/30 09:32:07;;;;;;;36.23;33.63;;;;;;;6.32;100.00;100736.69;5028923;28;20901;-49
2022/12/30 09:34:35;;;;;;;37.80;34.37;;;;;;;6.33;100.00;100732.22;5026394;28;20471;-50
2022/12/30 09:37:02;;;;;;;36.67;33.20;;;;;;;6.32;100.00;100725.28;5024363;28;21030;-52
2022/12/30 09:39:31;;;;;;;38.10;34.70;;;;;;;6.32;100.00;100733.22;5029536;28;20431;-50
2022/12/30 09:45:04;;;;;;;36.80;33.67;;;;;;;6.30;100.00;100722.78;5027950;28;20560;-47
2022/12/30 09:47:40;;;;;;;35.87;32.80;;;;;;;6.30;100.00;100714.03;5028802;28;20895;-51
2022/12/30 09:50:19;;;;;;;36.30;33.83;;;;;;;6.28;100.00;100710.72;5029297;28;20514;-49
2022/12/30 09:52:53;;;;;;;35.50;32.90;;;;;;;6.30;100.00;100709.53;5028727;28;20448;-47
2022/12/30 09:55:25;;;;;;;37.23;34.33;;;;;;;6.25;100.00;100719.81;5027714;28;20873;-47
2022/12/30 09:57:58;;;;;;;35.23;32.37;;;;;;;6.33;100.00;100711.84;5028192;28;20435;-47
2022/12/30 10:00:33;;;;;;;36.73;33.73;;;;;;;6.34;100.00;100712.69;5028627;28;20432;-49
2022/12/30 10:03:06;;;;;;;37.47;34.20;;;;;;;6.30;100.00;100708.75;5029410;28;20475;-50
2022/12/30 10:06:07;;;;;;;38.60;35.27;;;;;;;6.38;100.00;100704.25;5027648;28;20849;-47
2022/12/30 10:08:45;;;;;;;38.57;35.73;;;;;;;6.42;100.00;100705.53;5028411;28;20524;-52
2022/12/30 10:11:26;;;;;;;36.90;34.13;;;;;;;6.43;100.00;100696.59;5028772;28;20949;-51
2022/12/30 10:14:07;;;;;;;36.43;33.73;;;;;;;6.50;100.00;100700.22;5029277;28;20456;-50
2022/12/30 10:16:46;;;;;;;36.93;33.90;;;;;;;6.55;100.00;100691.75;5029063;28;20431;-51
2022/12/30 10:19:27;;;;;;;36.63;33.90;;;;;;;6.58;100.00;100691.41;5027952;28;20466;-48
2022/12/30 10:22:03;;;;;;;37.90;34.67;;;;;;;6.63;100.00;100676.63;5028312;28;20444;-48
2022/12/30 10:24:41;;;;;;;36.77;33.83;;;;;;;6.72;100.00;100681.91;5028399;28;20546;-50
2022/12/30 10:27:18;;;;;;;37.37;33.97;;;;;;;6.78;100.00;100674.09;5028919;28;20432;-47
2022/12/30 10:29:46;;;;;;;37.30;33.90;;;;;;;6.84;100.00;100662.78;5028332;28;21035;-49
2022/12/30 10:32:20;;;;;;;36.77;33.87;;;;;;;6.88;100.00;100663.25;5028256;28;20486;-49
2022/12/30 10:34:55;;;;;;;36.30;33.53;;;;;;;6.89;100.00;100663.09;5027930;28;20519;-51
2022/12/30 10:37:31;;;;;;;36.90;33.20;;;;;;;6.87;100.00;100659.00;5022929;28;20952;-46
2022/12/30 10:40:00;;;;;;;34.73;31.70;;;;;;;6.96;100.00;100649.97;5027008;28;20518;-48
2022/12/30 10:42:48;;;;;;;34.37;31.87;;;;;;;7.00;100.00;100649.44;5030350;28;20460;-50
2022/12/30 10:45:31;;;;;;;34.40;31.67;;;;;;;7.00;100.00;100641.50;5028965;28;20472;-53
2022/12/30 10:48:17;;;;;;;33.83;31.53;;;;;;;7.08;100.00;100638.78;5027820;22;21070;-48
2022/12/30 10:50:49;;;;;;;32.93;30.53;;;;;;;7.08;100.00;100636.13;4992630;28;20843;-47
2022/12/30 10:53:19;;;;;;;32.60;30.50;;;;;;;7.19;100.00;100627.78;4996038;28;20437;-47
2022/12/30 10:56:05;;;;;;;36.20;33.13;;;;;;;7.24;100.00;100622.75;4992300;28;20500;-48
2022/12/30 10:58:41;;;;;;;35.93;33.47;;;;;;;7.28;100.00;100627.72;4971062;28;20468;-45
2022/12/30 11:01:22;;;;;;;35.57;32.37;;;;;;;7.27;100.00;100623.41;4974596;28;20871;-46
2022/12/30 11:04:00;;;;;;;35.03;32.23;;;;;;;7.29;100.00;100616.09;4967798;28;20467;-46
2022/12/30 11:06:37;;;;;;;34.00;31.70;;;;;;;7.15;100.00;100605.25;4974134;28;20548;-47
2022/12/30 11:09:25;;;;;;;35.13;32.30;;;;;;;7.10;100.00;100612.09;4973631;28;20447;-46
2022/12/30 11:15:30;;;;;;;34.70;32.00;;;;;;;7.12;100.00;100605.59;4968459;28;21102;-46
2022/12/30 11:18:16;;;;;;;34.53;31.60;;;;;;;7.06;100.00;100606.31;4973424;28;20467;-47
2022/12/30 11:21:01;;;;;;;36.27;33.13;;;;;;;7.12;100.00;100602.97;4970693;28;20446;-49
2022/12/30 11:23:47;;;;;;;35.07;32.40;;;;;;;7.05;100.00;100588.75;4963526;28;20487;-45
2022/12/30 11:26:29;;;;;;;34.07;31.47;;;;;;;7.10;100.00;100598.84;4973498;28;20446;-47
2022/12/30 11:29:09;;;;;;;33.10;30.40;;;;;;;7.17;100.00;100586.50;4974257;28;20473;-46
2022/12/30 11:31:45;;;;;;;35.77;32.57;;;;;;;7.26;100.00;100577.47;4973611;28;20470;-45
2022/12/30 11:34:21;;;;;;;35.20;31.90;;;;;;;7.24;100.00;100568.88;5002317;22;20885;-43
2022/12/30 11:36:50;;;;;;;33.80;31.20;;;;;;;7.30;100.00;100567.34;4993785;28;20952;-46
2022/12/30 11:39:41;;;;;;;36.23;33.10;;;;;;;7.26;100.00;100566.88;5003786;28;20463;-47
2022/12/30 11:42:31;;;;;;;33.40;31.27;;;;;;;7.17;100.00;100554.69;5005350;28;20480;-48
2022/12/30 11:45:23;;;;;;;34.43;31.83;;;;;;;7.20;100.00;100557.81;4999652;28;20835;-48
2022/12/30 11:48:01;;;;;;;33.07;30.20;;;;;;;7.23;100.00;100551.31;4998162;28;20456;-45
2022/12/30 11:54:02;;;;;;;34.10;30.90;;;;;;;7.15;100.00;100535.47;4994350;28;20469;-49
2022/12/30 11:56:38;;;;;;;32.33;30.30;;;;;;;7.14;100.00;100537.31;4992982;28;20437;-47
2022/12/30 11:59:16;;;;;;;32.33;30.33;;;;;;;7.13;100.00;100533.03;4993773;28;20435;-48
2022/12/30 12:01:47;;;;;;;32.23;29.47;;;;;;;7.17;100.00;100523.69;4991165;28;20457;-43
2022/12/30 12:04:38;;;;;;;30.97;29.13;;;;;;;7.25;100.00;100512.19;4992425;28;20480;-46
2022/12/30 12:07:21;;;;;;;31.67;29.67;;;;;;;7.24;100.00;100506.06;4992635;28;20541;-45
2022/12/30 12:10:00;;;;;;;32.17;29.77;;;;;;;7.26;100.00;100508.50;4993576;28;20541;-44
2022/12/30 12:12:37;;;;;;;33.13;30.97;;;;;;;7.23;100.00;100498.25;5001328;28;20958;-47
2022/12/30 12:15:35;;;;;;;31.93;29.53;;;;;;;7.27;100.00;100488.94;5012896;28;20461;-49
2022/12/30 12:18:14;;;;;;;32.73;30.13;;;;;;;7.25;100.00;100467.09;5015245;28;20436;-49
2022/12/30 12:20:58;;;;;;;31.57;29.77;;;;;;;7.21;100.00;100468.47;5011864;28;20433;-45
2022/12/30 12:23:43;;;;;;;31.07;28.97;;;;;;;7.24;100.00;100471.56;5001205;28;20475;-46
2022/12/30 12:26:16;;;;;;;32.50;29.80;;;;;;;7.22;100.00;100460.34;5011487;28;20421;-45
2022/12/30 12:28:55;;;;;;;32.23;30.03;;;;;;;7.24;100.00;100457.50;5011996;28;20969;-46